Hlavní strana
METAR-TAF:

METAR-TAF

Letiště :

Mykolajiv, Ukrajina

zeměpisná šířka: 47-03-29N, zeměpisná délka: 031-55-15E, výška: 56 m

Aktuální stav počasí

Zpráva byla vytvořena před 16 hodinami a 12 minutami, v 13:00 UTC
vítr z různých směrů 2 kt
Teplota 18°C
Vlhkost vzduchu 20%
Tlak 1021 hPa
Viditelnost 10 km a více
Žádná oblačnost pod 1500 m, nevyskytují se cumulonimby.

METAR: UKON 041300Z VRB01MPS CAVOK 18/M05 Q1021 NOSIG

Čas: 08:12 (05:12 UTC)

Předpověď počasí

Zpráva byla vytvořena před 18 hodinami a 1 minutami, v 11:11 UTC
Předpověď platná od 04 v 12 UTC do 04 v 21 UTC
Západoseverozápadní vítr 6 kt
Viditelnost 10 km a více
Polojasno ve výšce 400 ft
Polojasno ve výšce 2000 ft, Cumulonimbus.

TAF: UKON 041111Z 0412/0421 30003MPS 9999 SCT004 SCT020CB

Stav a předpovědi počasí z více než 4 000 letišť (zprávy METAR a TAF).

Červené a žluté tečky na mapě představují dostupné meteorologické stanice.

Když kurzor umístíte na tečku, zobrazí se název stanice.

Pak kliknutím zobrazíte stav a předpověď počasí.

Chcete-li změnit mapu, kliknutím na zelené tlačítko se znaménkem +mapu přiblížíte, kliknutím na zelené tlačítko se znaménkem – mapu oddálíte a kliknutím na zelené šipky přejdete na sousední mapy.


METAR-TAF: